NCAR-RAP Real-Time Weather Data

Output produced by METARs form (14 October 2019  23:04 UTC)
found at http://weather.rap.ucar.edu/surface/
 
KBOI 142253Z 34008KT 10SM CLR 18/01 A3002 RMK AO2 SLP164 T01780006
KBOI 142153Z 33006KT 10SM CLR 18/01 A3002 RMK AO2 SLP163 T01780011
KBOI 142053Z 35006KT 10SM CLR 17/02 A3003 RMK AO2 SLP165 T01720017 58007
KBOI 142021Z 28007KT 10SM CLR 16/01 A3004 RMK AO2 T01610006
KBOI 142017Z 30007KT 2SM HZ FEW002 17/01 A3004 RMK AO2 VIS 1/2V5 T01670006
KBOI 141953Z 32007KT 10SM CLR 16/M01 A3005 RMK AO2 SLP172 T01561006
KBOI 141853Z 30007KT 10SM CLR 14/M02 A3005 RMK AO2 SLP175 T01441022
KBOI 141753Z 28005KT 10SM CLR 12/M03 A3005 RMK AO2 SLP177 T01171033 10117 20022 51013
KBOI 141653Z 28003KT 10SM CLR 10/M03 A3005 RMK AO2 SLP178 T01001033
KBOI 141553Z 27003KT 9SM CLR 08/M04 A3004 RMK AO2 SLP174 T00781039
KBOI 141453Z 14006KT 10SM CLR 04/M06 A3001 RMK AO2 SLP166 T00391061 53016
KBOI 141353Z 14006KT 10SM CLR 03/M07 A3000 RMK AO2 SLP160 T00331067
KBOI 141253Z 17005KT 10SM CLR 02/M07 A2997 RMK AO2 SLP150 T00221067
KBOI 141153Z 15005KT 10SM CLR 03/M06 A2996 RMK AO2 SLP143 T00331061 10056 20017 53011
KBOI 141053Z 00000KT 10SM CLR 02/M07 A2995 RMK AO2 SLP139 T00221067
KBOI 140953Z 15003KT 10SM CLR 03/M07 A2993 RMK AO2 SLP134 T00281067
KBOI 140853Z 14003KT 10SM CLR 04/M06 A2993 RMK AO2 SLP132 T00391061 53008
KBOI 140753Z 00000KT 10SM CLR 04/M06 A2991 RMK AO2 SLP126 T00441056
KBOI 140653Z 17004KT 10SM CLR 04/M06 A2991 RMK AO2 SLP125 T00441056 401670022
KBOI 140553Z 19003KT 10SM CLR 06/M05 A2990 RMK AO2 SLP125 T00561050 10161 20050 53009
KBOI 140453Z 13004KT 10SM CLR 06/M05 A2989 RMK AO2 SLP124 T00561050
KBOI 140353Z 18004KT 10SM CLR 07/M06 A2988 RMK AO2 SLP122 T00671056
KBOI 140253Z 00000KT 10SM CLR 10/M04 A2987 RMK AO2 SLP117 T01001039 53004
KBOI 140153Z 28003KT 10SM CLR 12/M04 A2986 RMK AO2 SLP113 T01221039
KBOI 140053Z 30005KT 9SM CLR 14/M05 A2986 RMK AO2 SLP110 T01441050
KBOI 132353Z 34003KT 10SM CLR 16/M06 A2986 RMK AO2 SLP109 T01611061 10167 20111 56009
KBOI 132253Z 30005KT 10SM CLR 16/M06 A2986 RMK AO2 SLP109 T01611061
KBOI 132153Z 29005KT 10SM CLR 16/M07 A2987 RMK AO2 SLP110 T01611067
KBOI 132053Z VRB04KT 10SM CLR 15/M07 A2989 RMK AO2 SLP121 T01501072 58023
KBOI 131953Z 03004KT 10SM CLR 15/M07 A2992 RMK AO2 SLP130 T01501072
KBOI 131853Z VRB03KT 10SM CLR 14/M08 A2995 RMK AO2 SLP137 T01391083
KBOI 131753Z 05003KT 10SM CLR 11/M07 A2997 RMK AO2 SLP146 T01111072 10111 20028 50001
KBOI 131653Z 00000KT 10SM CLR 09/M08 A2997 RMK AO2 SLP150 T00891078
KBOI 131553Z 09004KT 10SM CLR 06/M07 A2997 RMK AO2 SLP153 T00561067
KBOI 131453Z 14006KT 10SM CLR 04/M08 A2996 RMK AO2 SLP149 T00391078 53003
KBOI 131353Z 15006KT 10SM CLR 03/M08 A2996 RMK AO2 SLP147 T00281078
KBOI 131253Z 15008KT 10SM CLR 03/M08 A2995 RMK AO2 SLP143 T00281078
KBOI 131153Z 15007KT 10SM CLR 03/M08 A2995 RMK AO2 SLP140 T00281078 10067 20022 55002
KBOI 131053Z 14005KT 10SM CLR 03/M08 A2995 RMK AO2 SLP139 T00331078
KBOI 130953Z 13004KT 10SM CLR 03/M07 A2996 RMK AO2 SLP143 T00331072
KBOI 130853Z 00000KT 10SM CLR 02/M07 A2996 RMK AO2 SLP144 T00221072 53002
KBOI 130753Z 10003KT 10SM CLR 03/M07 A2996 RMK AO2 SLP144 T00331072
KBOI 130653Z 00000KT 10SM CLR 06/M08 A2995 RMK AO2 SLP141 T00611078 401610000
KBOI 130553Z 15005KT 10SM CLR 06/M07 A2995 RMK AO2 SLP143 T00611072 10156 20033 56007
KBOI 130453Z 14005KT 10SM CLR 06/M08 A2996 RMK AO2 SLP147 T00611078
KBOI 130353Z 00000KT 10SM CLR 08/M07 A2996 RMK AO2 SLP150 T00781072
KBOI 130253Z 00000KT 10SM CLR 09/M08 A2997 RMK AO2 SLP156 T00891078 55007
KBOI 130153Z 35004KT 10SM CLR 12/M07 A2997 RMK AO2 SLP154 T01171067
KBOI 130053Z 35004KT 10SM CLR 13/M07 A2998 RMK AO2 SLP155 T01331072
KBOI 122353Z 35005KT 10SM CLR 16/M08 A3000 RMK AO2 SLP158 T01561083 10161 20094 56019